sensor_id;sensor_type;location;lat;lon;timestamp;pressure;altitude;pressure_sealevel;temperature;humidity
18697;BME280;22617;43.690;27.956;2023-04-28T00:03:23;99030.38;;;7.07;69.15
18697;BME280;22617;43.690;27.956;2023-04-28T00:08:27;99017.41;;;7.06;69.36
18697;BME280;22617;43.690;27.956;2023-04-28T00:13:30;99023.44;;;7.05;69.45
18697;BME280;22617;43.690;27.956;2023-04-28T00:18:36;99019.97;;;7.03;69.33
18697;BME280;22617;43.690;27.956;2023-04-28T00:23:39;99030.19;;;6.89;68.95
18697;BME280;22617;43.690;27.956;2023-04-28T00:28:43;99029.16;;;6.75;69.16
18697;BME280;22617;43.690;27.956;2023-04-28T00:33:48;99023.75;;;6.55;69.54
18697;BME280;22617;43.690;27.956;2023-04-28T00:38:52;99018.66;;;6.61;69.69
18697;BME280;22617;43.690;27.956;2023-04-28T00:43:56;99017.66;;;6.51;69.10
18697;BME280;22617;43.690;27.956;2023-04-28T00:49:03;99012.44;;;6.48;69.33
18697;BME280;22617;43.690;27.956;2023-04-28T00:54:07;99016.66;;;6.40;69.35
18697;BME280;22617;43.690;27.956;2023-04-28T00:59:11;99022.66;;;6.36;69.06
18697;BME280;22617;43.690;27.956;2023-04-28T01:04:19;99011.31;;;6.27;69.54
18697;BME280;22617;43.690;27.956;2023-04-28T01:09:24;99018.88;;;6.14;69.07
18697;BME280;22617;43.690;27.956;2023-04-28T01:14:29;99021.41;;;6.10;68.41
18697;BME280;22617;43.690;27.956;2023-04-28T01:19:35;99020.47;;;6.05;68.43
18697;BME280;22617;43.690;27.956;2023-04-28T01:24:40;99014.41;;;6.01;68.10
18697;BME280;22617;43.690;27.956;2023-04-28T01:29:47;99012.53;;;5.90;68.00
18697;BME280;22617;43.690;27.956;2023-04-28T01:34:50;99016.88;;;5.94;67.84
18697;BME280;22617;43.690;27.956;2023-04-28T01:39:56;99013.25;;;5.86;67.48
18697;BME280;22617;43.690;27.956;2023-04-28T01:44:59;99017.44;;;5.76;67.77
18697;BME280;22617;43.690;27.956;2023-04-28T01:50:06;99013.19;;;5.80;67.60
18697;BME280;22617;43.690;27.956;2023-04-28T01:55:12;99014.78;;;5.70;68.18
18697;BME280;22617;43.690;27.956;2023-04-28T02:00:16;99013.84;;;5.65;68.42
18697;BME280;22617;43.690;27.956;2023-04-28T02:05:24;99010.38;;;5.64;68.44
18697;BME280;22617;43.690;27.956;2023-04-28T02:10:30;99012.75;;;5.51;68.45
18697;BME280;22617;43.690;27.956;2023-04-28T02:15:38;99011.06;;;5.54;68.50
18697;BME280;22617;43.690;27.956;2023-04-28T02:20:42;99004.84;;;5.43;68.23
18697;BME280;22617;43.690;27.956;2023-04-28T02:25:48;99007.44;;;5.43;68.54
18697;BME280;22617;43.690;27.956;2023-04-28T02:30:51;98997.06;;;5.40;67.88
18697;BME280;22617;43.690;27.956;2023-04-28T02:35:57;99000.41;;;5.35;68.10
18697;BME280;22617;43.690;27.956;2023-04-28T02:41:04;99003.63;;;5.21;68.44
18697;BME280;22617;43.690;27.956;2023-04-28T02:46:10;99011.38;;;5.23;68.61
18697;BME280;22617;43.690;27.956;2023-04-28T02:51:14;99013.97;;;5.23;68.07
18697;BME280;22617;43.690;27.956;2023-04-28T02:56:19;99014.84;;;5.23;68.03
18697;BME280;22617;43.690;27.956;2023-04-28T03:01:23;99016.47;;;5.17;68.63
18697;BME280;22617;43.690;27.956;2023-04-28T03:06:28;99029.13;;;5.02;68.82
18697;BME280;22617;43.690;27.956;2023-04-28T03:11:35;99030.13;;;5.10;69.22
18697;BME280;22617;43.690;27.956;2023-04-28T03:16:39;99049.81;;;5.05;68.74
18697;BME280;22617;43.690;27.956;2023-04-28T03:21:43;99054.03;;;4.98;68.90
18697;BME280;22617;43.690;27.956;2023-04-28T03:26:49;99054.81;;;4.96;68.65
18697;BME280;22617;43.690;27.956;2023-04-28T03:31:53;99053.94;;;4.95;69.15
18697;BME280;22617;43.690;27.956;2023-04-28T03:36:57;99070.25;;;4.93;69.04
18697;BME280;22617;43.690;27.956;2023-04-28T03:42:05;99069.59;;;5.04;68.79
18697;BME280;22617;43.690;27.956;2023-04-28T03:47:28;99079.31;;;5.16;69.00
18697;BME280;22617;43.690;27.956;2023-04-28T03:52:32;99077.69;;;5.21;68.57
18697;BME280;22617;43.690;27.956;2023-04-28T03:57:37;99077.94;;;5.35;68.35
18697;BME280;22617;43.690;27.956;2023-04-28T04:02:41;99080.91;;;5.56;67.76
18697;BME280;22617;43.690;27.956;2023-04-28T04:07:46;99079.25;;;5.61;67.86
18697;BME280;22617;43.690;27.956;2023-04-28T04:12:51;99088.84;;;5.68;67.84
18697;BME280;22617;43.690;27.956;2023-04-28T04:17:55;99098.72;;;5.90;67.12
18697;BME280;22617;43.690;27.956;2023-04-28T04:23:02;99110.28;;;6.12;66.33
18697;BME280;22617;43.690;27.956;2023-04-28T04:28:07;99112.25;;;6.27;66.56
18697;BME280;22617;43.690;27.956;2023-04-28T04:33:11;99102.94;;;6.41;65.93
18697;BME280;22617;43.690;27.956;2023-04-28T04:38:15;99107.47;;;6.57;65.09
18697;BME280;22617;43.690;27.956;2023-04-28T04:43:20;99107.69;;;6.72;64.57
18697;BME280;22617;43.690;27.956;2023-04-28T04:48:25;99095.69;;;6.79;64.28
18697;BME280;22617;43.690;27.956;2023-04-28T04:53:29;99102.81;;;6.95;64.35
18697;BME280;22617;43.690;27.956;2023-04-28T04:58:34;99096.97;;;7.13;63.09
18697;BME280;22617;43.690;27.956;2023-04-28T05:03:57;99106.69;;;7.35;63.39
18697;BME280;22617;43.690;27.956;2023-04-28T05:09:02;99091.19;;;7.41;62.99
18697;BME280;22617;43.690;27.956;2023-04-28T05:14:08;99094.00;;;7.64;62.93
18697;BME280;22617;43.690;27.956;2023-04-28T05:19:15;99100.22;;;7.82;62.21
18697;BME280;22617;43.690;27.956;2023-04-28T05:24:20;99100.44;;;8.08;62.14
18697;BME280;22617;43.690;27.956;2023-04-28T05:29:27;99107.41;;;8.17;62.39
18697;BME280;22617;43.690;27.956;2023-04-28T05:34:31;99104.09;;;8.31;61.78
18697;BME280;22617;43.690;27.956;2023-04-28T05:39:34;99113.75;;;8.52;61.19
18697;BME280;22617;43.690;27.956;2023-04-28T05:44:41;99123.31;;;8.61;60.59
18697;BME280;22617;43.690;27.956;2023-04-28T05:49:46;99119.97;;;8.77;60.41
18697;BME280;22617;43.690;27.956;2023-04-28T05:54:50;99120.88;;;8.93;60.03
18697;BME280;22617;43.690;27.956;2023-04-28T05:59:56;99124.50;;;9.30;59.39
18697;BME280;22617;43.690;27.956;2023-04-28T06:05:00;99128.81;;;9.31;59.30
18697;BME280;22617;43.690;27.956;2023-04-28T06:10:06;99132.34;;;9.51;59.65
18697;BME280;22617;43.690;27.956;2023-04-28T06:15:12;99107.25;;;9.68;58.01
18697;BME280;22617;43.690;27.956;2023-04-28T06:20:16;99126.34;;;10.03;58.54
18697;BME280;22617;43.690;27.956;2023-04-28T06:25:20;99122.91;;;10.30;57.29
18697;BME280;22617;43.690;27.956;2023-04-28T06:30:26;99123.72;;;10.57;57.64
18697;BME280;22617;43.690;27.956;2023-04-28T06:35:30;99120.13;;;10.96;54.48
18697;BME280;22617;43.690;27.956;2023-04-28T06:40:37;99126.19;;;11.02;54.00
18697;BME280;22617;43.690;27.956;2023-04-28T06:45:44;99131.25;;;11.38;54.35
18697;BME280;22617;43.690;27.956;2023-04-28T06:50:47;99138.09;;;11.58;53.75
18697;BME280;22617;43.690;27.956;2023-04-28T06:55:51;99122.13;;;12.06;54.10
18697;BME280;22617;43.690;27.956;2023-04-28T07:00:59;99126.44;;;12.12;52.06
18697;BME280;22617;43.690;27.956;2023-04-28T07:06:05;99125.53;;;12.17;53.65
18697;BME280;22617;43.690;27.956;2023-04-28T07:11:09;99122.78;;;12.30;50.15
18697;BME280;22617;43.690;27.956;2023-04-28T07:16:15;99123.34;;;12.62;50.04
18697;BME280;22617;43.690;27.956;2023-04-28T07:21:19;99129.41;;;12.65;48.44
18697;BME280;22617;43.690;27.956;2023-04-28T07:26:24;99111.88;;;12.75;49.28
18697;BME280;22617;43.690;27.956;2023-04-28T07:31:29;99110.50;;;12.41;48.36
18697;BME280;22617;43.690;27.956;2023-04-28T07:36:33;99116.59;;;13.19;48.82
18697;BME280;22617;43.690;27.956;2023-04-28T07:41:37;99100.13;;;13.11;48.95
18697;BME280;22617;43.690;27.956;2023-04-28T07:46:43;99115.50;;;12.62;48.33
18697;BME280;22617;43.690;27.956;2023-04-28T07:51:47;99128.25;;;12.92;47.39
18697;BME280;22617;43.690;27.956;2023-04-28T07:56:52;99128.28;;;12.89;46.82
18697;BME280;22617;43.690;27.956;2023-04-28T08:01:57;99122.75;;;13.79;46.87
18697;BME280;22617;43.690;27.956;2023-04-28T08:07:01;99115.47;;;13.40;45.78
18697;BME280;22617;43.690;27.956;2023-04-28T08:12:05;99116.03;;;13.62;45.52
18697;BME280;22617;43.690;27.956;2023-04-28T08:17:10;99112.22;;;13.82;45.65
18697;BME280;22617;43.690;27.956;2023-04-28T08:22:14;99107.63;;;14.50;44.72
18697;BME280;22617;43.690;27.956;2023-04-28T08:27:18;99111.28;;;14.42;44.07
18697;BME280;22617;43.690;27.956;2023-04-28T08:32:23;99101.84;;;14.79;44.61
18697;BME280;22617;43.690;27.956;2023-04-28T08:37:27;99097.81;;;15.06;43.86
18697;BME280;22617;43.690;27.956;2023-04-28T08:42:32;99095.56;;;14.42;43.53
18697;BME280;22617;43.690;27.956;2023-04-28T08:47:39;99102.09;;;14.65;44.43
18697;BME280;22617;43.690;27.956;2023-04-28T08:52:47;99103.16;;;14.55;44.65
18697;BME280;22617;43.690;27.956;2023-04-28T08:57:51;99089.44;;;15.28;44.13
18697;BME280;22617;43.690;27.956;2023-04-28T09:02:57;99083.53;;;15.17;43.83
18697;BME280;22617;43.690;27.956;2023-04-28T09:08:01;99080.75;;;15.65;43.19
18697;BME280;22617;43.690;27.956;2023-04-28T09:13:06;99073.28;;;15.47;43.28
18697;BME280;22617;43.690;27.956;2023-04-28T09:18:13;99071.88;;;15.70;44.29
18697;BME280;22617;43.690;27.956;2023-04-28T09:23:19;99072.19;;;15.94;42.61
18697;BME280;22617;43.690;27.956;2023-04-28T09:28:23;99075.91;;;15.47;43.42
18697;BME280;22617;43.690;27.956;2023-04-28T09:33:29;99062.13;;;15.36;43.14
18697;BME280;22617;43.690;27.956;2023-04-28T09:38:42;99067.84;;;16.27;42.00
18697;BME280;22617;43.690;27.956;2023-04-28T09:43:46;99072.44;;;15.83;42.98
18697;BME280;22617;43.690;27.956;2023-04-28T09:48:59;99071.63;;;15.81;41.83
18697;BME280;22617;43.690;27.956;2023-04-28T09:54:04;99053.63;;;15.64;42.19
18697;BME280;22617;43.690;27.956;2023-04-28T09:59:08;99049.75;;;16.14;42.81
18697;BME280;22617;43.690;27.956;2023-04-28T10:04:14;99046.84;;;16.90;42.94
18697;BME280;22617;43.690;27.956;2023-04-28T10:09:20;99062.63;;;15.91;42.12
18697;BME280;22617;43.690;27.956;2023-04-28T10:14:28;99045.94;;;16.26;41.82
18697;BME280;22617;43.690;27.956;2023-04-28T10:19:36;99061.25;;;15.37;42.03
18697;BME280;22617;43.690;27.956;2023-04-28T10:24:54;99046.78;;;16.28;41.84
18697;BME280;22617;43.690;27.956;2023-04-28T10:30:12;99058.69;;;15.34;42.21
18697;BME280;22617;43.690;27.956;2023-04-28T10:35:42;99053.56;;;15.67;42.93
18697;BME280;22617;43.690;27.956;2023-04-28T10:40:47;99042.13;;;16.38;41.32
18697;BME280;22617;43.690;27.956;2023-04-28T10:45:59;99040.66;;;15.17;43.11
18697;BME280;22617;43.690;27.956;2023-04-28T10:51:38;99052.72;;;15.27;43.31
18697;BME280;22617;43.690;27.956;2023-04-28T11:02:39;99052.34;;;15.44;42.90
18697;BME280;22617;43.690;27.956;2023-04-28T11:13:43;99050.03;;;16.04;42.01
18697;BME280;22617;43.690;27.956;2023-04-28T11:18:59;99037.69;;;16.74;41.92
18697;BME280;22617;43.690;27.956;2023-04-28T11:24:09;99054.38;;;16.06;42.55
18697;BME280;22617;43.690;27.956;2023-04-28T11:29:15;99047.38;;;15.30;42.06
18697;BME280;22617;43.690;27.956;2023-04-28T11:34:23;99054.53;;;15.99;41.77
18697;BME280;22617;43.690;27.956;2023-04-28T11:39:29;99032.97;;;17.14;42.32
18697;BME280;22617;43.690;27.956;2023-04-28T11:44:35;99035.84;;;17.64;40.46
18697;BME280;22617;43.690;27.956;2023-04-28T11:49:43;99027.38;;;17.53;41.32
18697;BME280;22617;43.690;27.956;2023-04-28T11:54:52;99047.59;;;16.30;40.80
18697;BME280;22617;43.690;27.956;2023-04-28T12:05:26;99040.84;;;16.20;41.59
18697;BME280;22617;43.690;27.956;2023-04-28T12:10:30;99032.38;;;15.74;41.29
18697;BME280;22617;43.690;27.956;2023-04-28T12:15:39;99028.31;;;16.93;42.90
18697;BME280;22617;43.690;27.956;2023-04-28T12:20:47;99028.22;;;16.33;41.78
18697;BME280;22617;43.690;27.956;2023-04-28T12:25:54;99018.72;;;15.59;42.54
18697;BME280;22617;43.690;27.956;2023-04-28T12:31:03;99025.03;;;15.52;42.91
18697;BME280;22617;43.690;27.956;2023-04-28T12:36:13;99020.06;;;16.43;41.45
18697;BME280;22617;43.690;27.956;2023-04-28T12:41:19;99015.47;;;15.84;42.44
18697;BME280;22617;43.690;27.956;2023-04-28T12:46:28;98998.34;;;16.03;43.63
18697;BME280;22617;43.690;27.956;2023-04-28T12:51:37;99013.09;;;14.98;43.32
18697;BME280;22617;43.690;27.956;2023-04-28T12:56:43;99004.56;;;14.88;43.98
18697;BME280;22617;43.690;27.956;2023-04-28T13:02:04;98997.13;;;15.45;43.11
18697;BME280;22617;43.690;27.956;2023-04-28T13:07:15;99006.78;;;15.06;43.99
18697;BME280;22617;43.690;27.956;2023-04-28T13:12:21;99010.59;;;14.50;44.54
18697;BME280;22617;43.690;27.956;2023-04-28T13:17:28;99003.94;;;14.31;44.16
18697;BME280;22617;43.690;27.956;2023-04-28T13:22:35;99016.78;;;13.97;44.75
18697;BME280;22617;43.690;27.956;2023-04-28T13:27:43;99006.66;;;14.25;44.19
18697;BME280;22617;43.690;27.956;2023-04-28T13:32:55;98994.41;;;15.11;44.19
18697;BME280;22617;43.690;27.956;2023-04-28T13:38:02;98995.59;;;14.97;43.82
18697;BME280;22617;43.690;27.956;2023-04-28T13:43:18;99000.59;;;14.23;45.67
18697;BME280;22617;43.690;27.956;2023-04-28T13:48:23;98988.28;;;14.28;44.73
18697;BME280;22617;43.690;27.956;2023-04-28T13:53:34;99003.38;;;14.61;43.91
18697;BME280;22617;43.690;27.956;2023-04-28T13:58:43;98979.47;;;15.15;42.96
18697;BME280;22617;43.690;27.956;2023-04-28T14:03:47;98997.75;;;14.79;44.25
18697;BME280;22617;43.690;27.956;2023-04-28T14:08:54;99009.72;;;14.02;44.66
18697;BME280;22617;43.690;27.956;2023-04-28T14:13:59;99000.28;;;13.92;44.76
18697;BME280;22617;43.690;27.956;2023-04-28T14:19:09;99011.94;;;13.76;44.24
18697;BME280;22617;43.690;27.956;2023-04-28T14:24:22;99006.78;;;13.68;44.72
18697;BME280;22617;43.690;27.956;2023-04-28T14:29:28;98998.75;;;13.79;45.81
18697;BME280;22617;43.690;27.956;2023-04-28T14:34:36;99001.19;;;13.89;45.09
18697;BME280;22617;43.690;27.956;2023-04-28T14:39:47;98991.31;;;14.05;44.87
18697;BME280;22617;43.690;27.956;2023-04-28T14:45:06;99004.19;;;14.19;44.76
18697;BME280;22617;43.690;27.956;2023-04-28T14:50:12;98993.88;;;14.08;44.40
18697;BME280;22617;43.690;27.956;2023-04-28T14:55:31;98999.22;;;14.02;43.98
18697;BME280;22617;43.690;27.956;2023-04-28T15:00:38;99008.44;;;13.75;44.83
18697;BME280;22617;43.690;27.956;2023-04-28T15:05:45;99006.84;;;13.67;44.83
18697;BME280;22617;43.690;27.956;2023-04-28T15:11:05;99007.16;;;13.47;45.95
18697;BME280;22617;43.690;27.956;2023-04-28T15:16:28;99000.09;;;13.50;45.17
18697;BME280;22617;43.690;27.956;2023-04-28T15:21:36;98997.34;;;13.58;46.38
18697;BME280;22617;43.690;27.956;2023-04-28T15:26:44;99005.78;;;13.77;46.72
18697;BME280;22617;43.690;27.956;2023-04-28T15:31:50;99015.19;;;13.88;45.92
18697;BME280;22617;43.690;27.956;2023-04-28T15:36:58;99000.28;;;13.92;45.51
18697;BME280;22617;43.690;27.956;2023-04-28T15:48:27;99007.56;;;14.24;46.23
18697;BME280;22617;43.690;27.956;2023-04-28T15:54:03;98997.91;;;13.77;46.69
18697;BME280;22617;43.690;27.956;2023-04-28T15:59:19;99009.31;;;13.76;45.84
18697;BME280;22617;43.690;27.956;2023-04-28T16:04:47;99001.78;;;13.56;46.85
18697;BME280;22617;43.690;27.956;2023-04-28T16:09:55;99001.06;;;13.46;46.49
18697;BME280;22617;43.690;27.956;2023-04-28T16:15:02;99003.00;;;13.32;46.74
18697;BME280;22617;43.690;27.956;2023-04-28T16:20:10;99000.72;;;13.08;47.35
18697;BME280;22617;43.690;27.956;2023-04-28T16:25:20;98995.97;;;13.34;47.70
18697;BME280;22617;43.690;27.956;2023-04-28T16:30:28;98999.75;;;13.18;48.24
18697;BME280;22617;43.690;27.956;2023-04-28T16:35:36;98999.81;;;13.12;47.29
18697;BME280;22617;43.690;27.956;2023-04-28T16:40:40;99001.78;;;12.93;47.40
18697;BME280;22617;43.690;27.956;2023-04-28T16:45:46;99003.66;;;12.85;47.77
18697;BME280;22617;43.690;27.956;2023-04-28T16:50:53;99005.66;;;12.65;48.33
18697;BME280;22617;43.690;27.956;2023-04-28T16:56:00;98997.88;;;12.57;48.66
18697;BME280;22617;43.690;27.956;2023-04-28T17:01:05;98998.84;;;12.50;49.14
18697;BME280;22617;43.690;27.956;2023-04-28T17:06:11;99005.19;;;12.31;49.41
18697;BME280;22617;43.690;27.956;2023-04-28T17:11:15;99003.53;;;12.22;49.57
18697;BME280;22617;43.690;27.956;2023-04-28T17:16:20;99004.59;;;12.03;50.07
18697;BME280;22617;43.690;27.956;2023-04-28T17:21:26;99009.88;;;11.96;50.58
18697;BME280;22617;43.690;27.956;2023-04-28T17:26:31;99006.41;;;11.95;50.75
18697;BME280;22617;43.690;27.956;2023-04-28T17:31:36;99003.88;;;11.89;50.91
18697;BME280;22617;43.690;27.956;2023-04-28T17:36:42;99007.47;;;11.73;51.10
18697;BME280;22617;43.690;27.956;2023-04-28T17:41:46;99017.22;;;11.50;51.99
18697;BME280;22617;43.690;27.956;2023-04-28T17:46:51;99024.09;;;11.60;52.56
18697;BME280;22617;43.690;27.956;2023-04-28T17:51:56;99024.19;;;11.51;53.42
18697;BME280;22617;43.690;27.956;2023-04-28T17:56:59;99030.22;;;11.54;52.79
18697;BME280;22617;43.690;27.956;2023-04-28T18:02:03;99036.44;;;11.41;53.66
18697;BME280;22617;43.690;27.956;2023-04-28T18:07:08;99033.84;;;11.33;54.40
18697;BME280;22617;43.690;27.956;2023-04-28T18:12:12;99036.56;;;11.17;54.53
18697;BME280;22617;43.690;27.956;2023-04-28T18:17:15;99045.31;;;11.05;54.85
18697;BME280;22617;43.690;27.956;2023-04-28T18:22:21;99048.84;;;10.95;55.67
18697;BME280;22617;43.690;27.956;2023-04-28T18:27:25;99052.31;;;10.96;56.26
18697;BME280;22617;43.690;27.956;2023-04-28T18:32:28;99068.91;;;10.81;56.41
18697;BME280;22617;43.690;27.956;2023-04-28T18:37:36;99068.06;;;10.73;56.34
18697;BME280;22617;43.690;27.956;2023-04-28T18:42:40;99075.97;;;10.55;56.28
18697;BME280;22617;43.690;27.956;2023-04-28T18:47:44;99079.44;;;10.49;56.60
18697;BME280;22617;43.690;27.956;2023-04-28T18:52:49;99075.09;;;10.42;57.09
18697;BME280;22617;43.690;27.956;2023-04-28T18:57:52;99073.38;;;10.50;58.30
18697;BME280;22617;43.690;27.956;2023-04-28T19:02:56;99066.41;;;10.52;57.63
18697;BME280;22617;43.690;27.956;2023-04-28T19:08:03;99071.63;;;10.47;57.76
18697;BME280;22617;43.690;27.956;2023-04-28T19:13:12;99080.31;;;10.31;57.94
18697;BME280;22617;43.690;27.956;2023-04-28T19:18:16;99076.03;;;10.20;58.09
18697;BME280;22617;43.690;27.956;2023-04-28T19:23:21;99071.66;;;10.06;57.62
18697;BME280;22617;43.690;27.956;2023-04-28T19:28:25;99085.56;;;10.05;58.69
18697;BME280;22617;43.690;27.956;2023-04-28T19:33:30;99076.88;;;9.99;58.52
18697;BME280;22617;43.690;27.956;2023-04-28T19:38:36;99084.69;;;9.99;58.70
18697;BME280;22617;43.690;27.956;2023-04-28T19:43:42;99084.69;;;9.90;59.24
18697;BME280;22617;43.690;27.956;2023-04-28T19:48:45;99088.16;;;9.83;59.22
18697;BME280;22617;43.690;27.956;2023-04-28T19:53:50;99090.75;;;9.77;58.73
18697;BME280;22617;43.690;27.956;2023-04-28T19:58:55;99088.13;;;9.52;59.89
18697;BME280;22617;43.690;27.956;2023-04-28T20:03:59;99089.00;;;9.53;59.75
18697;BME280;22617;43.690;27.956;2023-04-28T20:09:05;99094.19;;;9.35;59.76
18697;BME280;22617;43.690;27.956;2023-04-28T20:14:10;99095.00;;;9.26;59.99
18697;BME280;22617;43.690;27.956;2023-04-28T20:19:14;99092.38;;;9.15;59.63
18697;BME280;22617;43.690;27.956;2023-04-28T20:24:20;99094.00;;;8.92;60.17
18697;BME280;22617;43.690;27.956;2023-04-28T20:29:23;99096.59;;;8.86;60.43
18697;BME280;22617;43.690;27.956;2023-04-28T20:34:28;99091.41;;;8.89;60.57
18697;BME280;22617;43.690;27.956;2023-04-28T20:39:33;99092.25;;;8.81;60.73
18697;BME280;22617;43.690;27.956;2023-04-28T20:44:36;99091.41;;;8.85;60.85
18697;BME280;22617;43.690;27.956;2023-04-28T20:49:40;99092.28;;;8.87;61.06
18697;BME280;22617;43.690;27.956;2023-04-28T20:54:45;99085.38;;;8.90;61.24
18697;BME280;22617;43.690;27.956;2023-04-28T20:59:49;99080.94;;;8.66;61.12
18697;BME280;22617;43.690;27.956;2023-04-28T21:04:53;99087.88;;;8.70;60.51
18697;BME280;22617;43.690;27.956;2023-04-28T21:09:58;99089.53;;;8.59;61.11
18697;BME280;22617;43.690;27.956;2023-04-28T21:15:03;99101.56;;;8.45;61.08
18697;BME280;22617;43.690;27.956;2023-04-28T21:20:07;99096.41;;;8.44;61.35
18697;BME280;22617;43.690;27.956;2023-04-28T21:25:13;99100.63;;;8.31;61.12
18697;BME280;22617;43.690;27.956;2023-04-28T21:30:16;99090.13;;;8.17;61.74
18697;BME280;22617;43.690;27.956;2023-04-28T21:35:20;99087.47;;;8.10;61.82
18697;BME280;22617;43.690;27.956;2023-04-28T21:40:26;99078.75;;;8.02;62.35
18697;BME280;22617;43.690;27.956;2023-04-28T21:45:30;99090.00;;;8.01;62.00
18697;BME280;22617;43.690;27.956;2023-04-28T21:50:33;99077.06;;;8.04;62.10
18697;BME280;22617;43.690;27.956;2023-04-28T21:55:39;99070.13;;;8.03;62.05
18697;BME280;22617;43.690;27.956;2023-04-28T22:00:44;99066.66;;;8.02;62.17
18697;BME280;22617;43.690;27.956;2023-04-28T22:05:49;99066.63;;;7.99;62.35
18697;BME280;22617;43.690;27.956;2023-04-28T22:10:54;99070.84;;;7.86;62.17
18697;BME280;22617;43.690;27.956;2023-04-28T22:15:57;99055.25;;;7.82;62.36
18697;BME280;22617;43.690;27.956;2023-04-28T22:21:05;99052.53;;;7.65;62.75
18697;BME280;22617;43.690;27.956;2023-04-28T22:26:11;99056.91;;;7.72;62.57
18697;BME280;22617;43.690;27.956;2023-04-28T22:31:16;99045.66;;;7.73;62.66
18697;BME280;22617;43.690;27.956;2023-04-28T22:36:19;99037.91;;;7.78;62.70
18697;BME280;22617;43.690;27.956;2023-04-28T22:41:25;99031.03;;;7.83;62.55
18697;BME280;22617;43.690;27.956;2023-04-28T22:46:28;99027.63;;;7.85;62.61
18697;BME280;22617;43.690;27.956;2023-04-28T22:51:32;99015.59;;;7.98;62.29
18697;BME280;22617;43.690;27.956;2023-04-28T22:56:38;99010.34;;;7.92;62.19
18697;BME280;22617;43.690;27.956;2023-04-28T23:01:42;98995.53;;;7.77;62.10
18697;BME280;22617;43.690;27.956;2023-04-28T23:06:45;98988.59;;;7.70;62.38
18697;BME280;22617;43.690;27.956;2023-04-28T23:11:50;98982.53;;;7.70;62.79
18697;BME280;22617;43.690;27.956;2023-04-28T23:16:54;98981.69;;;7.71;63.27
18697;BME280;22617;43.690;27.956;2023-04-28T23:21:58;98968.75;;;7.80;63.15
18697;BME280;22617;43.690;27.956;2023-04-28T23:27:03;98967.91;;;7.81;63.37
18697;BME280;22617;43.690;27.956;2023-04-28T23:32:07;98966.97;;;7.70;63.31
18697;BME280;22617;43.690;27.956;2023-04-28T23:37:11;98961.78;;;7.73;63.36
18697;BME280;22617;43.690;27.956;2023-04-28T23:42:16;98961.81;;;7.71;63.91
18697;BME280;22617;43.690;27.956;2023-04-28T23:47:19;98960.09;;;7.78;63.55
18697;BME280;22617;43.690;27.956;2023-04-28T23:52:23;98966.97;;;7.70;63.36
18697;BME280;22617;43.690;27.956;2023-04-28T23:57:28;98961.78;;;7.70;63.43
